createdAt,value
2017-12-31T00:00:11.061Z,20.34
2017-12-31T00:00:42.680Z,20.33
2017-12-31T00:01:14.301Z,20.32
2017-12-31T00:01:45.974Z,20.29
2017-12-31T00:02:17.597Z,20.32
2017-12-31T00:02:49.221Z,20.32
2017-12-31T00:03:20.845Z,20.28
2017-12-31T00:03:52.469Z,20.29
2017-12-31T00:04:24.093Z,20.28
2017-12-31T00:04:55.713Z,20.25
2017-12-31T00:05:27.337Z,20.26
2017-12-31T00:05:58.965Z,20.26
2017-12-31T00:06:30.617Z,20.28
2017-12-31T00:07:02.282Z,20.27
2017-12-31T00:07:33.910Z,20.30
2017-12-31T00:08:05.534Z,20.26
2017-12-31T00:08:37.154Z,20.25
2017-12-31T00:09:08.825Z,20.23
2017-12-31T00:09:40.450Z,20.24
2017-12-31T00:10:12.070Z,20.24
2017-12-31T00:10:43.689Z,20.26
2017-12-31T00:11:15.310Z,20.26
2017-12-31T00:11:46.933Z,20.26
2017-12-31T00:12:18.554Z,20.25
2017-12-31T00:12:50.174Z,20.25
2017-12-31T00:13:21.797Z,20.25
2017-12-31T00:13:53.417Z,20.24
2017-12-31T00:14:25.086Z,20.22
2017-12-31T00:14:56.749Z,20.22
2017-12-31T00:15:28.415Z,20.22
2017-12-31T00:16:00.043Z,20.20
2017-12-31T00:16:31.673Z,20.23
2017-12-31T00:17:03.297Z,20.23
2017-12-31T00:17:34.926Z,20.23
2017-12-31T00:18:06.546Z,20.20
2017-12-31T00:18:38.186Z,20.18
2017-12-31T00:19:09.809Z,20.19
2017-12-31T00:19:41.471Z,20.20
2017-12-31T00:20:13.093Z,20.19
2017-12-31T00:20:44.721Z,20.18
2017-12-31T00:21:16.342Z,20.19
2017-12-31T00:21:47.961Z,20.20
2017-12-31T00:22:19.581Z,20.19
2017-12-31T00:22:51.202Z,20.18
2017-12-31T00:23:22.821Z,20.18
2017-12-31T00:23:54.445Z,20.17
2017-12-31T00:24:26.114Z,20.18
2017-12-31T00:24:57.737Z,20.16
2017-12-31T00:25:29.362Z,20.18
2017-12-31T00:26:00.990Z,20.19
2017-12-31T00:26:32.609Z,20.20
2017-12-31T00:27:04.231Z,20.17
2017-12-31T00:27:35.853Z,20.16
2017-12-31T00:28:07.477Z,20.15
2017-12-31T00:28:39.101Z,20.16
2017-12-31T00:29:10.725Z,20.19
2017-12-31T00:29:42.385Z,20.18
2017-12-31T00:30:14.011Z,20.14
2017-12-31T00:30:45.633Z,20.17
2017-12-31T00:31:17.253Z,20.19
2017-12-31T00:31:48.874Z,20.18
2017-12-31T00:32:20.493Z,20.18
2017-12-31T00:32:52.115Z,20.19
2017-12-31T00:33:23.742Z,20.18
2017-12-31T00:33:55.361Z,20.17
2017-12-31T00:34:26.980Z,20.18
2017-12-31T00:34:58.601Z,20.19
2017-12-31T00:35:30.220Z,20.20
2017-12-31T00:36:01.887Z,20.19
2017-12-31T00:36:33.514Z,20.20
2017-12-31T00:37:05.138Z,20.20
2017-12-31T00:37:36.757Z,20.21
2017-12-31T00:38:08.423Z,20.21
2017-12-31T00:38:40.045Z,20.23
2017-12-31T00:39:11.714Z,20.22
2017-12-31T00:39:43.337Z,20.22
2017-12-31T00:40:14.958Z,20.23
2017-12-31T00:40:46.589Z,20.26
2017-12-31T00:41:18.209Z,20.25
2017-12-31T00:41:49.837Z,20.24
2017-12-31T00:42:21.477Z,20.23
2017-12-31T00:42:53.098Z,20.24
2017-12-31T00:43:24.722Z,20.29
2017-12-31T00:43:56.342Z,20.28
2017-12-31T00:44:28.129Z,20.27
2017-12-31T00:44:59.751Z,20.27
2017-12-31T00:45:31.377Z,20.30
2017-12-31T00:46:02.998Z,20.29
2017-12-31T00:46:34.626Z,20.26
2017-12-31T00:47:06.249Z,20.26
2017-12-31T00:47:37.875Z,20.28
2017-12-31T00:48:09.494Z,20.30
2017-12-31T00:48:41.114Z,20.32
2017-12-31T00:49:12.734Z,20.33
2017-12-31T00:49:44.352Z,20.34
2017-12-31T00:50:16.025Z,20.32
2017-12-31T00:50:47.649Z,20.36
2017-12-31T00:51:19.270Z,20.35
2017-12-31T00:51:50.890Z,20.33
2017-12-31T00:52:22.525Z,20.33
2017-12-31T00:52:54.158Z,20.33
2017-12-31T00:53:25.776Z,20.32
2017-12-31T00:53:57.402Z,20.32
2017-12-31T00:54:29.034Z,20.38
2017-12-31T00:55:00.658Z,20.40
2017-12-31T00:55:32.335Z,20.37
2017-12-31T00:56:03.957Z,20.39
2017-12-31T00:56:35.581Z,20.37
2017-12-31T00:57:07.202Z,20.35
2017-12-31T00:57:38.830Z,20.36
2017-12-31T00:58:10.492Z,20.36
2017-12-31T00:58:42.106Z,20.38
2017-12-31T00:59:13.730Z,20.35
2017-12-31T00:59:45.354Z,20.34
2017-12-31T01:00:16.982Z,20.34
2017-12-31T01:00:48.649Z,20.35
2017-12-31T01:01:20.269Z,20.33
2017-12-31T01:01:51.893Z,20.36
2017-12-31T01:02:23.525Z,20.32
2017-12-31T01:02:55.145Z,20.35
2017-12-31T01:03:26.771Z,20.38
2017-12-31T01:03:58.399Z,20.35
2017-12-31T01:04:30.028Z,20.36
2017-12-31T01:05:01.653Z,20.35
2017-12-31T01:05:33.325Z,20.35
2017-12-31T01:06:04.948Z,20.36
2017-12-31T01:06:36.573Z,20.38
2017-12-31T01:07:08.198Z,20.34
2017-12-31T01:07:39.817Z,20.32
2017-12-31T01:08:11.448Z,20.29
2017-12-31T01:08:43.069Z,20.28
2017-12-31T01:09:14.689Z,20.30
2017-12-31T01:09:46.309Z,20.30
2017-12-31T01:10:17.933Z,20.29
2017-12-31T01:10:49.602Z,20.27
2017-12-31T01:11:21.226Z,20.28
2017-12-31T01:11:52.845Z,20.27
2017-12-31T01:12:24.475Z,20.29
2017-12-31T01:12:56.102Z,20.30
2017-12-31T01:13:27.721Z,20.27
2017-12-31T01:13:59.341Z,20.27
2017-12-31T01:14:30.961Z,20.30
2017-12-31T01:15:02.582Z,20.29
2017-12-31T01:15:34.205Z,20.32
2017-12-31T01:16:05.881Z,20.29
2017-12-31T01:16:37.505Z,20.27
2017-12-31T01:17:09.125Z,20.27
2017-12-31T01:17:40.746Z,20.30
2017-12-31T01:18:12.370Z,20.30
2017-12-31T01:18:43.990Z,20.25
2017-12-31T01:19:15.610Z,20.28
2017-12-31T01:19:47.234Z,20.26
2017-12-31T01:20:18.857Z,20.25
2017-12-31T01:20:50.481Z,20.25
2017-12-31T01:21:22.142Z,20.23
2017-12-31T01:21:53.814Z,20.23
2017-12-31T01:22:25.441Z,20.23
2017-12-31T01:22:57.061Z,20.22
2017-12-31T01:23:28.681Z,20.22
2017-12-31T01:24:00.301Z,20.23
2017-12-31T01:24:31.927Z,20.22
2017-12-31T01:25:03.545Z,20.24
2017-12-31T01:25:35.170Z,20.23
2017-12-31T01:26:06.802Z,20.24
2017-12-31T01:26:38.425Z,20.22
2017-12-31T01:27:10.098Z,20.19
2017-12-31T01:27:41.719Z,20.20
2017-12-31T01:28:13.338Z,20.22
2017-12-31T01:28:44.958Z,20.20
2017-12-31T01:29:16.581Z,20.19
2017-12-31T01:29:48.201Z,20.21
2017-12-31T01:30:19.825Z,20.21
2017-12-31T01:30:51.446Z,20.23
2017-12-31T01:31:23.066Z,20.25
2017-12-31T01:31:54.722Z,20.22
2017-12-31T01:32:26.597Z,20.21
2017-12-31T01:32:58.221Z,20.19
2017-12-31T01:33:29.885Z,20.19
2017-12-31T01:34:01.506Z,20.17
2017-12-31T01:34:33.135Z,20.16
2017-12-31T01:35:04.758Z,20.17
2017-12-31T01:35:36.378Z,20.15
2017-12-31T01:36:08.005Z,20.15
2017-12-31T01:36:39.629Z,20.14
2017-12-31T01:37:11.285Z,20.14
2017-12-31T01:37:42.905Z,20.15
2017-12-31T01:38:14.570Z,20.14
2017-12-31T01:38:46.192Z,20.15
2017-12-31T01:39:17.809Z,20.15
2017-12-31T01:39:49.433Z,20.16
2017-12-31T01:40:21.053Z,20.15
2017-12-31T01:40:52.681Z,20.16
2017-12-31T01:41:24.302Z,20.17
2017-12-31T01:41:55.926Z,20.14
2017-12-31T01:42:27.548Z,20.16
2017-12-31T01:42:59.166Z,20.13
2017-12-31T01:43:30.789Z,20.12
2017-12-31T01:44:02.458Z,20.13
2017-12-31T01:44:34.077Z,20.13
2017-12-31T01:45:05.698Z,20.11
2017-12-31T01:45:37.318Z,20.11
2017-12-31T01:46:08.942Z,20.11
2017-12-31T01:46:40.566Z,20.11
2017-12-31T01:47:12.185Z,20.11
2017-12-31T01:47:43.821Z,20.09
2017-12-31T01:48:15.441Z,20.08
2017-12-31T01:48:47.066Z,20.09
2017-12-31T01:49:18.734Z,20.09
2017-12-31T01:49:50.358Z,20.09
2017-12-31T01:50:21.985Z,20.08
2017-12-31T01:50:53.605Z,20.11
2017-12-31T01:51:25.234Z,20.09
2017-12-31T01:51:56.853Z,20.10
2017-12-31T01:52:28.477Z,20.09
2017-12-31T01:53:00.106Z,20.08
2017-12-31T01:53:31.720Z,20.07
2017-12-31T01:54:03.342Z,20.06
2017-12-31T01:54:35.018Z,20.10
2017-12-31T01:55:06.642Z,20.12
2017-12-31T01:55:38.262Z,20.14
2017-12-31T01:56:09.886Z,20.12
2017-12-31T01:56:41.510Z,20.11
2017-12-31T01:57:13.140Z,20.09
2017-12-31T01:57:44.761Z,20.11
2017-12-31T01:58:16.390Z,20.12
2017-12-31T01:58:48.009Z,20.12
2017-12-31T01:59:19.630Z,20.11
2017-12-31T01:59:51.294Z,20.14
2017-12-31T02:00:22.966Z,20.14
2017-12-31T02:00:54.585Z,20.12
2017-12-31T02:01:26.206Z,20.08
2017-12-31T02:01:57.829Z,20.10
2017-12-31T02:02:29.454Z,20.11
2017-12-31T02:03:01.082Z,20.11
2017-12-31T02:03:32.710Z,20.09
2017-12-31T02:04:04.329Z,20.10
2017-12-31T02:04:35.951Z,20.09
2017-12-31T02:05:07.573Z,20.08
2017-12-31T02:05:39.252Z,20.08
2017-12-31T02:06:10.877Z,20.08
2017-12-31T02:06:42.502Z,20.09
2017-12-31T02:07:14.125Z,20.09
2017-12-31T02:07:45.750Z,20.09
2017-12-31T02:08:17.374Z,20.10
2017-12-31T02:08:49.007Z,20.09
2017-12-31T02:09:20.629Z,20.12
2017-12-31T02:09:52.253Z,20.13
2017-12-31T02:10:23.877Z,20.12
2017-12-31T02:10:55.498Z,20.13
2017-12-31T02:11:27.126Z,20.11
2017-12-31T02:11:58.744Z,20.11
2017-12-31T02:12:30.365Z,20.12
2017-12-31T02:13:01.994Z,20.13
2017-12-31T02:13:33.625Z,20.12
2017-12-31T02:14:05.250Z,20.12
2017-12-31T02:14:36.873Z,20.09
2017-12-31T02:15:08.537Z,20.11
2017-12-31T02:15:40.157Z,20.12
2017-12-31T02:16:11.851Z,20.09
2017-12-31T02:16:43.480Z,20.12
2017-12-31T02:17:15.102Z,20.13
2017-12-31T02:17:46.726Z,20.14
2017-12-31T02:18:18.345Z,20.15
2017-12-31T02:18:49.965Z,20.15
2017-12-31T02:19:21.593Z,20.16
2017-12-31T02:19:53.209Z,20.15
2017-12-31T02:20:24.829Z,20.15
2017-12-31T02:20:56.449Z,20.14
2017-12-31T02:21:28.121Z,20.15
2017-12-31T02:21:59.749Z,20.15
2017-12-31T02:22:31.373Z,20.15
2017-12-31T02:23:03.001Z,20.16
2017-12-31T02:23:34.620Z,20.15
2017-12-31T02:24:06.250Z,20.17
2017-12-31T02:24:37.869Z,20.16
2017-12-31T02:25:09.492Z,20.14
2017-12-31T02:25:41.108Z,20.16
2017-12-31T02:26:12.728Z,20.15
2017-12-31T02:26:44.388Z,20.17
2017-12-31T02:27:16.022Z,20.17
2017-12-31T02:27:47.641Z,20.18
2017-12-31T02:28:19.269Z,20.18
2017-12-31T02:28:50.893Z,20.16
2017-12-31T02:29:22.517Z,20.17
2017-12-31T02:29:54.142Z,20.15
2017-12-31T02:30:25.779Z,20.14
2017-12-31T02:30:57.410Z,20.15
2017-12-31T02:31:29.073Z,20.15
2017-12-31T02:32:00.698Z,20.16
2017-12-31T02:32:32.361Z,20.15
2017-12-31T02:33:03.986Z,20.17
2017-12-31T02:33:35.610Z,20.18
2017-12-31T02:34:07.234Z,20.17
2017-12-31T02:34:38.857Z,20.15
2017-12-31T02:35:10.480Z,20.17
2017-12-31T02:35:42.097Z,20.17
2017-12-31T02:36:13.721Z,20.16
2017-12-31T02:36:45.341Z,20.15
2017-12-31T02:37:16.965Z,20.12
2017-12-31T02:37:48.629Z,20.13
2017-12-31T02:38:20.289Z,20.17
2017-12-31T02:38:51.909Z,20.15
2017-12-31T02:39:23.529Z,20.15
2017-12-31T02:39:55.151Z,20.14
2017-12-31T02:40:26.780Z,20.14
2017-12-31T02:40:58.401Z,20.15
2017-12-31T02:41:30.027Z,20.15
2017-12-31T02:42:01.659Z,20.16
2017-12-31T02:42:33.293Z,20.16
2017-12-31T02:43:04.913Z,20.15
2017-12-31T02:43:36.530Z,20.19
2017-12-31T02:44:08.149Z,20.17
2017-12-31T02:44:39.776Z,20.17
2017-12-31T02:45:11.405Z,20.16
2017-12-31T02:45:43.030Z,20.14
2017-12-31T02:46:14.693Z,20.13
2017-12-31T02:46:46.314Z,20.14
2017-12-31T02:47:17.941Z,20.11
2017-12-31T02:47:49.567Z,20.14
2017-12-31T02:48:21.190Z,20.14
2017-12-31T02:48:52.858Z,20.12
2017-12-31T02:49:24.481Z,20.13
2017-12-31T02:49:56.114Z,20.16
2017-12-31T02:50:27.738Z,20.12
2017-12-31T02:50:59.358Z,20.15
2017-12-31T02:51:30.978Z,20.14
2017-12-31T02:52:02.602Z,20.13
2017-12-31T02:52:34.221Z,19.98
2017-12-31T02:53:05.848Z,20.13
2017-12-31T02:53:37.527Z,20.15
2017-12-31T02:54:09.146Z,20.14
2017-12-31T02:54:40.764Z,20.15
2017-12-31T02:55:12.385Z,20.13
2017-12-31T02:55:44.010Z,20.12
2017-12-31T02:56:15.634Z,20.13
2017-12-31T02:56:47.253Z,20.12
2017-12-31T02:57:18.922Z,20.10
2017-12-31T02:57:50.547Z,20.13
2017-12-31T02:58:22.169Z,20.11
2017-12-31T02:58:53.793Z,20.12
2017-12-31T02:59:25.414Z,20.12
2017-12-31T02:59:57.033Z,20.11
2017-12-31T03:00:28.654Z,20.13
2017-12-31T03:01:00.274Z,20.12
2017-12-31T03:01:31.933Z,20.11
2017-12-31T03:02:03.558Z,20.10
2017-12-31T03:02:35.217Z,20.11
2017-12-31T03:03:07.122Z,20.11
2017-12-31T03:03:38.744Z,20.09
2017-12-31T03:04:10.370Z,20.10
2017-12-31T03:04:41.989Z,20.11
2017-12-31T03:05:13.609Z,20.11
2017-12-31T03:05:45.233Z,20.12
2017-12-31T03:06:16.898Z,20.11
2017-12-31T03:06:48.525Z,20.10
2017-12-31T03:07:20.149Z,20.08
2017-12-31T03:07:51.773Z,20.10
2017-12-31T03:08:23.397Z,20.08
2017-12-31T03:08:55.014Z,20.08
2017-12-31T03:09:26.638Z,20.13
2017-12-31T03:09:58.275Z,20.14
2017-12-31T03:10:29.901Z,20.12
2017-12-31T03:11:01.521Z,20.09
2017-12-31T03:11:33.137Z,20.08
2017-12-31T03:12:04.753Z,20.08
2017-12-31T03:12:36.377Z,20.09
2017-12-31T03:13:07.997Z,20.11
2017-12-31T03:13:39.625Z,20.09
2017-12-31T03:14:11.245Z,20.08
2017-12-31T03:14:42.949Z,20.08
2017-12-31T03:15:14.573Z,20.05
2017-12-31T03:15:46.193Z,20.06
2017-12-31T03:16:17.818Z,20.06
2017-12-31T03:16:49.437Z,20.05
2017-12-31T03:17:21.061Z,20.08
2017-12-31T03:17:52.682Z,20.08
2017-12-31T03:18:24.302Z,20.07
2017-12-31T03:18:55.921Z,20.09
2017-12-31T03:19:27.545Z,20.07
2017-12-31T03:19:59.166Z,20.09
2017-12-31T03:20:30.793Z,20.08
2017-12-31T03:21:02.417Z,20.07
2017-12-31T03:21:34.037Z,20.05
2017-12-31T03:22:05.657Z,20.05
2017-12-31T03:22:37.277Z,20.06
2017-12-31T03:23:08.902Z,20.10
2017-12-31T03:23:40.562Z,20.10
2017-12-31T03:24:12.185Z,20.09
2017-12-31T03:24:43.805Z,20.11
2017-12-31T03:25:15.425Z,20.08
2017-12-31T03:25:47.046Z,20.08
2017-12-31T03:26:18.669Z,20.08
2017-12-31T03:26:50.293Z,20.06
2017-12-31T03:27:21.914Z,20.08
2017-12-31T03:27:53.533Z,20.07
2017-12-31T03:28:25.153Z,20.06
2017-12-31T03:28:56.813Z,20.07
2017-12-31T03:29:28.433Z,20.07
2017-12-31T03:30:00.073Z,20.07
2017-12-31T03:30:31.740Z,20.08
2017-12-31T03:31:03.362Z,20.06
2017-12-31T03:31:34.985Z,20.07
2017-12-31T03:32:06.610Z,20.08
2017-12-31T03:32:38.233Z,20.08
2017-12-31T03:33:09.858Z,20.09
2017-12-31T03:33:41.482Z,20.10
2017-12-31T03:34:13.106Z,20.08
2017-12-31T03:34:44.770Z,20.10
2017-12-31T03:35:16.453Z,20.08
2017-12-31T03:35:48.074Z,20.07
2017-12-31T03:36:19.701Z,20.06
2017-12-31T03:36:51.326Z,20.08
2017-12-31T03:37:22.949Z,20.07
2017-12-31T03:37:54.573Z,20.08
2017-12-31T03:38:26.194Z,20.08
2017-12-31T03:38:57.817Z,20.07
2017-12-31T03:39:29.437Z,20.05
2017-12-31T03:40:01.062Z,20.06
2017-12-31T03:40:32.739Z,20.07
2017-12-31T03:41:04.361Z,20.06
2017-12-31T03:41:35.985Z,20.04
2017-12-31T03:42:07.605Z,20.06
2017-12-31T03:42:39.225Z,20.05
2017-12-31T03:43:10.856Z,20.06
2017-12-31T03:43:42.477Z,20.06
2017-12-31T03:44:14.102Z,20.06
2017-12-31T03:44:45.731Z,20.06
2017-12-31T03:45:17.357Z,20.07
2017-12-31T03:45:49.017Z,20.08
2017-12-31T03:46:20.638Z,20.10
2017-12-31T03:46:52.266Z,20.09
2017-12-31T03:47:23.889Z,20.06
2017-12-31T03:47:55.514Z,20.04
2017-12-31T03:48:27.138Z,20.06
2017-12-31T03:48:58.757Z,20.06
2017-12-31T03:49:30.377Z,20.08
2017-12-31T03:50:02.003Z,20.07
2017-12-31T03:50:33.622Z,20.08
2017-12-31T03:51:05.250Z,20.10
2017-12-31T03:51:36.874Z,20.09
2017-12-31T03:52:08.497Z,20.11
2017-12-31T03:52:40.158Z,20.11
2017-12-31T03:53:11.782Z,20.08
2017-12-31T03:53:43.414Z,20.13
2017-12-31T03:54:15.033Z,20.12
2017-12-31T03:54:46.653Z,20.13
2017-12-31T03:55:18.325Z,20.15
2017-12-31T03:55:49.965Z,20.21
2017-12-31T03:56:21.590Z,20.20
2017-12-31T03:56:53.210Z,20.20
2017-12-31T03:57:24.833Z,20.21
2017-12-31T03:57:56.501Z,20.19
2017-12-31T03:58:28.121Z,20.19
2017-12-31T03:58:59.741Z,20.18
2017-12-31T03:59:31.365Z,20.18
2017-12-31T04:00:02.991Z,20.20
2017-12-31T04:00:34.610Z,20.21
2017-12-31T04:01:06.229Z,20.20
2017-12-31T04:01:37.849Z,20.19
2017-12-31T04:02:09.473Z,20.23
2017-12-31T04:02:41.138Z,20.22
2017-12-31T04:03:12.802Z,20.21
2017-12-31T04:03:44.421Z,20.23
2017-12-31T04:04:16.042Z,20.21
2017-12-31T04:04:47.670Z,20.24
2017-12-31T04:05:19.293Z,20.23
2017-12-31T04:05:50.909Z,20.22
2017-12-31T04:06:22.530Z,20.20
2017-12-31T04:06:54.153Z,20.20
2017-12-31T04:07:25.777Z,20.21
2017-12-31T04:07:57.429Z,20.22
2017-12-31T04:08:29.093Z,20.24
2017-12-31T04:09:00.719Z,20.24
2017-12-31T04:09:32.346Z,20.22
2017-12-31T04:10:04.018Z,20.20
2017-12-31T04:10:35.642Z,20.19
2017-12-31T04:11:07.265Z,20.23
2017-12-31T04:11:38.890Z,20.25
2017-12-31T04:12:10.549Z,20.24
2017-12-31T04:12:42.170Z,20.26
2017-12-31T04:13:13.789Z,20.24
2017-12-31T04:13:45.414Z,20.22
2017-12-31T04:14:17.033Z,20.24
2017-12-31T04:14:48.701Z,20.26
2017-12-31T04:15:20.349Z,20.25
2017-12-31T04:15:51.973Z,20.23
2017-12-31T04:16:23.593Z,20.23
2017-12-31T04:16:55.214Z,20.23
2017-12-31T04:17:26.880Z,20.23
2017-12-31T04:17:58.498Z,20.25
2017-12-31T04:18:30.119Z,20.24
2017-12-31T04:19:01.741Z,20.24
2017-12-31T04:19:33.365Z,20.24
2017-12-31T04:20:05.030Z,20.21
2017-12-31T04:20:36.658Z,20.22
2017-12-31T04:21:08.329Z,20.24
2017-12-31T04:21:39.954Z,20.22
2017-12-31T04:22:11.573Z,20.23
2017-12-31T04:22:43.189Z,20.21
2017-12-31T04:23:14.818Z,20.24
2017-12-31T04:23:46.441Z,20.23
2017-12-31T04:24:18.067Z,20.23
2017-12-31T04:24:49.733Z,20.22
2017-12-31T04:25:21.355Z,20.23
2017-12-31T04:25:52.977Z,20.25
2017-12-31T04:26:24.597Z,20.24
2017-12-31T04:26:56.279Z,20.24
2017-12-31T04:27:27.902Z,20.23
2017-12-31T04:27:59.526Z,20.21
2017-12-31T04:28:31.150Z,20.17
2017-12-31T04:29:02.782Z,20.21
2017-12-31T04:29:34.401Z,20.20
2017-12-31T04:30:06.022Z,20.23
2017-12-31T04:30:37.645Z,20.21
2017-12-31T04:31:09.268Z,20.23
2017-12-31T04:31:40.901Z,20.24
2017-12-31T04:32:12.574Z,20.20
2017-12-31T04:32:44.194Z,20.17
2017-12-31T04:33:15.817Z,20.16
2017-12-31T04:33:47.441Z,20.17
2017-12-31T04:34:19.065Z,20.18
2017-12-31T04:34:50.685Z,20.17
2017-12-31T04:35:22.305Z,20.19
2017-12-31T04:35:53.932Z,20.18
2017-12-31T04:36:25.558Z,20.19
2017-12-31T04:36:57.177Z,20.17
2017-12-31T04:37:28.846Z,20.16
2017-12-31T04:38:00.465Z,20.16
2017-12-31T04:38:32.085Z,20.15
2017-12-31T04:39:03.721Z,20.16
2017-12-31T04:39:35.337Z,20.17
2017-12-31T04:40:06.958Z,20.17
2017-12-31T04:40:38.583Z,20.17
2017-12-31T04:41:10.215Z,20.17
2017-12-31T04:41:41.837Z,20.15
2017-12-31T04:42:13.462Z,20.17
2017-12-31T04:42:45.133Z,20.14
2017-12-31T04:43:16.757Z,20.13
2017-12-31T04:43:48.381Z,20.13
2017-12-31T04:44:20.013Z,20.15
2017-12-31T04:44:51.633Z,20.15
2017-12-31T04:45:23.258Z,20.16
2017-12-31T04:45:54.881Z,20.14
2017-12-31T04:46:26.501Z,20.15
2017-12-31T04:46:58.123Z,20.18
2017-12-31T04:47:29.742Z,20.17
2017-12-31T04:48:01.413Z,20.16
2017-12-31T04:48:33.038Z,20.16
2017-12-31T04:49:04.662Z,20.15
2017-12-31T04:49:36.281Z,20.15
2017-12-31T04:50:07.930Z,20.13
2017-12-31T04:50:39.557Z,20.14
2017-12-31T04:51:11.178Z,20.13
2017-12-31T04:51:42.796Z,20.14
2017-12-31T04:52:14.421Z,20.14
2017-12-31T04:52:46.042Z,20.16
2017-12-31T04:53:17.720Z,20.17
2017-12-31T04:53:49.342Z,20.18
2017-12-31T04:54:20.966Z,20.16
2017-12-31T04:54:52.586Z,20.16
2017-12-31T04:55:24.206Z,20.16
2017-12-31T04:55:55.833Z,20.13
2017-12-31T04:56:27.458Z,20.13
2017-12-31T04:56:59.078Z,20.13
2017-12-31T04:57:30.706Z,20.15
2017-12-31T04:58:02.334Z,20.15
2017-12-31T04:58:34.021Z,20.13
2017-12-31T04:59:05.693Z,20.12
2017-12-31T04:59:37.314Z,20.11
2017-12-31T05:00:08.934Z,20.14
2017-12-31T05:00:40.557Z,20.13
2017-12-31T05:01:12.178Z,20.13
2017-12-31T05:01:43.801Z,20.14
2017-12-31T05:02:15.430Z,20.17
2017-12-31T05:02:47.052Z,20.15
2017-12-31T05:03:18.674Z,20.17
2017-12-31T05:03:50.297Z,20.16
2017-12-31T05:04:21.953Z,20.15
2017-12-31T05:04:53.586Z,20.16
2017-12-31T05:05:25.209Z,20.18
2017-12-31T05:05:56.830Z,20.16
2017-12-31T05:06:28.454Z,20.16
2017-12-31T05:07:00.074Z,20.16
2017-12-31T05:07:31.696Z,20.18
2017-12-31T05:08:03.329Z,20.15
2017-12-31T05:08:34.950Z,20.12
2017-12-31T05:09:06.570Z,20.14
2017-12-31T05:09:38.233Z,20.15
2017-12-31T05:10:09.853Z,20.15
2017-12-31T05:10:41.473Z,20.15
2017-12-31T05:11:13.093Z,20.13
2017-12-31T05:11:44.717Z,20.13
2017-12-31T05:12:16.350Z,20.14
2017-12-31T05:12:47.969Z,20.12
2017-12-31T05:13:19.598Z,20.15
2017-12-31T05:13:51.219Z,20.16
2017-12-31T05:14:22.914Z,20.16
2017-12-31T05:14:54.538Z,20.18
2017-12-31T05:15:26.157Z,20.19
2017-12-31T05:15:57.786Z,20.17
2017-12-31T05:16:29.410Z,20.17
2017-12-31T05:17:01.030Z,20.17
2017-12-31T05:17:32.659Z,20.16
2017-12-31T05:18:04.278Z,20.17
2017-12-31T05:18:35.938Z,20.16
2017-12-31T05:19:07.567Z,20.17
2017-12-31T05:19:39.230Z,20.19
2017-12-31T05:20:10.853Z,20.20
2017-12-31T05:20:42.477Z,20.19
2017-12-31T05:21:14.148Z,20.21
2017-12-31T05:21:45.774Z,20.19
2017-12-31T05:22:17.402Z,20.20
2017-12-31T05:22:49.021Z,20.21
2017-12-31T05:23:20.646Z,20.20
2017-12-31T05:23:52.270Z,20.21
2017-12-31T05:24:23.889Z,20.22
2017-12-31T05:24:55.514Z,20.21
2017-12-31T05:25:27.135Z,20.22
2017-12-31T05:25:58.758Z,20.21
2017-12-31T05:26:30.434Z,20.21
2017-12-31T05:27:02.054Z,20.21
2017-12-31T05:27:33.682Z,20.21
2017-12-31T05:28:05.305Z,20.20
2017-12-31T05:28:36.929Z,20.19
2017-12-31T05:29:08.558Z,20.20
2017-12-31T05:29:40.181Z,20.21
2017-12-31T05:30:11.806Z,20.23
2017-12-31T05:30:43.430Z,20.24
2017-12-31T05:31:15.053Z,20.23
2017-12-31T05:31:46.718Z,20.24
2017-12-31T05:32:18.346Z,20.23
2017-12-31T05:32:49.965Z,20.24
2017-12-31T05:33:21.638Z,20.26
2017-12-31T05:33:53.266Z,20.25
2017-12-31T05:34:24.885Z,20.26
2017-12-31T05:34:56.501Z,20.25
2017-12-31T05:35:28.121Z,20.28
2017-12-31T05:35:59.745Z,20.26
2017-12-31T05:36:31.369Z,20.24
2017-12-31T05:37:02.998Z,20.24
2017-12-31T05:37:34.621Z,20.24
2017-12-31T05:38:06.486Z,20.23
2017-12-31T05:38:38.107Z,20.23
2017-12-31T05:39:09.729Z,20.21
2017-12-31T05:39:41.349Z,20.21
2017-12-31T05:40:12.974Z,20.20
2017-12-31T05:40:44.641Z,20.21
2017-12-31T05:41:16.262Z,20.23
2017-12-31T05:41:47.881Z,20.24
2017-12-31T05:42:19.502Z,20.25
2017-12-31T05:42:51.122Z,20.22
2017-12-31T05:43:22.797Z,20.21
2017-12-31T05:43:54.418Z,20.23
2017-12-31T05:44:26.038Z,20.20
2017-12-31T05:44:57.660Z,20.22
2017-12-31T05:45:29.281Z,20.23
2017-12-31T05:46:00.907Z,20.24
2017-12-31T05:46:32.533Z,20.24
2017-12-31T05:47:04.153Z,20.25
2017-12-31T05:47:35.777Z,20.26
2017-12-31T05:48:07.402Z,20.25
2017-12-31T05:48:39.061Z,20.23
2017-12-31T05:49:10.682Z,20.21
2017-12-31T05:49:42.317Z,20.23
2017-12-31T05:50:13.938Z,20.23
2017-12-31T05:50:45.605Z,20.19
2017-12-31T05:51:17.229Z,20.19
2017-12-31T05:51:48.849Z,20.19
2017-12-31T05:52:20.477Z,20.19
2017-12-31T05:52:52.099Z,20.18
2017-12-31T05:53:23.716Z,20.16
2017-12-31T05:53:55.813Z,20.17
2017-12-31T05:54:27.433Z,20.17
2017-12-31T05:54:59.054Z,20.17
2017-12-31T05:55:30.681Z,20.17
2017-12-31T05:56:02.346Z,20.18
2017-12-31T05:56:33.964Z,20.19
2017-12-31T05:57:05.589Z,20.20
2017-12-31T05:57:37.209Z,20.21
2017-12-31T05:58:08.829Z,20.19
2017-12-31T05:58:40.490Z,20.17
2017-12-31T05:59:12.113Z,20.17
2017-12-31T05:59:43.733Z,20.17
2017-12-31T06:00:15.354Z,20.18
2017-12-31T06:00:46.974Z,20.20
2017-12-31T06:01:18.597Z,20.21
2017-12-31T06:01:50.225Z,20.19
2017-12-31T06:02:21.854Z,20.18
2017-12-31T06:02:53.509Z,20.17
2017-12-31T06:03:25.129Z,20.15
2017-12-31T06:03:56.754Z,20.17
2017-12-31T06:04:28.382Z,20.17
2017-12-31T06:05:00.007Z,20.16
2017-12-31T06:05:31.633Z,20.15
2017-12-31T06:06:03.254Z,20.17
2017-12-31T06:06:34.921Z,20.16
2017-12-31T06:07:06.545Z,20.16
2017-12-31T06:07:38.174Z,20.17
2017-12-31T06:08:09.794Z,20.17
2017-12-31T06:08:41.419Z,20.16
2017-12-31T06:09:13.041Z,20.17
2017-12-31T06:09:44.663Z,20.18
2017-12-31T06:10:16.285Z,20.17
2017-12-31T06:10:47.911Z,20.17
2017-12-31T06:11:19.533Z,20.17
2017-12-31T06:11:51.349Z,20.15
2017-12-31T06:12:22.974Z,20.15
2017-12-31T06:12:54.594Z,20.15
2017-12-31T06:13:26.221Z,20.17
2017-12-31T06:13:57.841Z,20.17
2017-12-31T06:14:29.508Z,20.16
2017-12-31T06:15:01.124Z,20.16
2017-12-31T06:15:32.746Z,20.16
2017-12-31T06:16:04.365Z,20.14
2017-12-31T06:16:35.981Z,20.19
2017-12-31T06:17:07.605Z,20.16
2017-12-31T06:17:39.230Z,20.17
2017-12-31T06:18:10.853Z,20.15
2017-12-31T06:18:42.474Z,20.15
2017-12-31T06:19:14.093Z,20.15
2017-12-31T06:19:45.716Z,20.17
2017-12-31T06:20:17.341Z,20.16
2017-12-31T06:20:48.961Z,20.16
2017-12-31T06:21:20.617Z,20.17
2017-12-31T06:21:52.287Z,20.15
2017-12-31T06:22:23.909Z,20.15
2017-12-31T06:22:55.530Z,20.16
2017-12-31T06:23:27.158Z,20.15
2017-12-31T06:23:58.778Z,20.16
2017-12-31T06:24:30.399Z,20.13
2017-12-31T06:25:02.017Z,20.15
2017-12-31T06:25:33.642Z,20.13
2017-12-31T06:26:05.270Z,20.17
2017-12-31T06:26:36.898Z,20.16
2017-12-31T06:27:08.521Z,20.15
2017-12-31T06:27:40.183Z,20.14
2017-12-31T06:28:11.806Z,20.17
2017-12-31T06:28:43.434Z,20.16
2017-12-31T06:29:15.054Z,20.16
2017-12-31T06:29:46.673Z,20.15
2017-12-31T06:30:18.326Z,20.13
2017-12-31T06:30:49.954Z,20.10
2017-12-31T06:31:21.573Z,20.14
2017-12-31T06:31:53.189Z,20.16
2017-12-31T06:32:24.841Z,20.15
2017-12-31T06:32:56.558Z,20.12
2017-12-31T06:33:28.170Z,20.14
2017-12-31T06:33:59.797Z,20.13
2017-12-31T06:34:31.423Z,20.16
2017-12-31T06:35:03.042Z,20.14
2017-12-31T06:35:34.662Z,20.15
2017-12-31T06:36:06.281Z,20.16
2017-12-31T06:36:37.903Z,20.18
2017-12-31T06:37:09.554Z,20.18
2017-12-31T06:37:41.226Z,20.17
2017-12-31T06:38:12.854Z,20.18
2017-12-31T06:38:44.478Z,20.18
2017-12-31T06:39:16.106Z,20.17
2017-12-31T06:39:47.726Z,20.18
2017-12-31T06:40:19.345Z,20.16
2017-12-31T06:40:50.965Z,20.17
2017-12-31T06:41:22.589Z,20.14
2017-12-31T06:41:54.209Z,20.15
2017-12-31T06:42:25.829Z,20.18
2017-12-31T06:42:57.489Z,20.18
2017-12-31T06:43:29.114Z,20.17
2017-12-31T06:44:00.783Z,20.15
2017-12-31T06:44:32.410Z,20.16
2017-12-31T06:45:04.030Z,20.15
2017-12-31T06:45:35.664Z,20.16
2017-12-31T06:46:07.286Z,20.17
2017-12-31T06:46:39.357Z,20.19
2017-12-31T06:47:10.974Z,20.17